Decoded Metar for KDIJ (DRIGGS REED MEM in ID, USA) (IATA:DIJ) | Meteo·Mobile Aviation Weather
aviador You're here:

KDIJ Decoded Metar

DRIGGS REED MEM in ID, USA
Report Time2018-08-21 10:56:00
UTC Time2018-08-21 12:11:06
Flight Rules Old
WindCalm
Visibility9999 m
Phenomena:N/A
Clouds:Scattered 110 Hf
Expected CloudBase > 2,000 ft AGL from Temp-Dew spread
CeilingNone
Temp08°C (ISA +5)
Dew Point03°C (71% RH)
AAT6.5°C
QNH1021 hPa
Density Alt6,713 ft
Elevation6,230 ft
Report Wrong Elevation
Raw Report
KDIJ 211056Z AUTO 00000KT 10SM SCT110 08/03 A3016 RMK AO2 SLP165
T00780033=

Extra information for KDIJ:More info

Metar Taf Metar & Taf Last 4 Metars F.Rules Stats Wind Profile Meteogram Temp Stats Airport Information Weather charts Add Link Nearby VenuesMetar ALERT Operation Metar Decoded Social comments

AIRNAV info for KDIJ